sensor_id;sensor_type;location;lat;lon;timestamp;P1;durP1;ratioP1;P2;durP2;ratioP2
42098;SDS011;27758;55.900;8.516;2023-07-02T00:02:20;27.98;;;8.52;;
42098;SDS011;27758;55.900;8.516;2023-07-02T00:04:48;30.45;;;6.65;;
42098;SDS011;27758;55.900;8.516;2023-07-02T00:07:14;25.90;;;7.78;;
42098;SDS011;27758;55.900;8.516;2023-07-02T00:09:39;30.77;;;7.53;;
42098;SDS011;27758;55.900;8.516;2023-07-02T00:12:05;43.05;;;8.38;;
42098;SDS011;27758;55.900;8.516;2023-07-02T00:14:32;36.45;;;8.55;;
42098;SDS011;27758;55.900;8.516;2023-07-02T00:16:57;32.25;;;7.88;;
42098;SDS011;27758;55.900;8.516;2023-07-02T00:19:23;34.85;;;8.32;;
42098;SDS011;27758;55.900;8.516;2023-07-02T00:21:49;32.85;;;8.43;;
42098;SDS011;27758;55.900;8.516;2023-07-02T00:24:15;33.45;;;8.02;;
42098;SDS011;27758;55.900;8.516;2023-07-02T00:26:41;30.45;;;7.22;;
42098;SDS011;27758;55.900;8.516;2023-07-02T00:29:07;29.92;;;7.18;;
42098;SDS011;27758;55.900;8.516;2023-07-02T00:31:34;32.90;;;8.13;;
42098;SDS011;27758;55.900;8.516;2023-07-02T00:34:00;26.60;;;6.75;;
42098;SDS011;27758;55.900;8.516;2023-07-02T00:36:27;23.95;;;6.97;;
42098;SDS011;27758;55.900;8.516;2023-07-02T00:38:53;31.85;;;8.02;;
42098;SDS011;27758;55.900;8.516;2023-07-02T00:41:19;32.88;;;8.43;;
42098;SDS011;27758;55.900;8.516;2023-07-02T00:43:44;27.73;;;6.72;;
42098;SDS011;27758;55.900;8.516;2023-07-02T00:48:49;30.08;;;8.70;;
42098;SDS011;27758;55.900;8.516;2023-07-02T00:51:20;30.15;;;7.18;;
42098;SDS011;27758;55.900;8.516;2023-07-02T00:53:48;29.80;;;6.90;;
42098;SDS011;27758;55.900;8.516;2023-07-02T00:56:15;23.85;;;5.95;;
42098;SDS011;27758;55.900;8.516;2023-07-02T00:58:42;24.40;;;6.47;;
42098;SDS011;27758;55.900;8.516;2023-07-02T01:01:23;19.95;;;4.55;;
42098;SDS011;27758;55.900;8.516;2023-07-02T01:03:51;12.13;;;3.85;;
42098;SDS011;27758;55.900;8.516;2023-07-02T01:06:19;12.75;;;2.75;;
42098;SDS011;27758;55.900;8.516;2023-07-02T01:08:50;9.05;;;3.08;;
42098;SDS011;27758;55.900;8.516;2023-07-02T01:11:21;13.55;;;3.50;;
42098;SDS011;27758;55.900;8.516;2023-07-02T01:13:52;10.88;;;2.97;;
42098;SDS011;27758;55.900;8.516;2023-07-02T01:16:20;11.18;;;2.90;;
42098;SDS011;27758;55.900;8.516;2023-07-02T01:18:47;11.90;;;3.00;;
42098;SDS011;27758;55.900;8.516;2023-07-02T01:21:15;12.60;;;3.50;;
42098;SDS011;27758;55.900;8.516;2023-07-02T01:23:42;14.85;;;3.30;;
42098;SDS011;27758;55.900;8.516;2023-07-02T01:26:08;11.75;;;2.65;;
42098;SDS011;27758;55.900;8.516;2023-07-02T01:28:34;13.70;;;3.08;;
42098;SDS011;27758;55.900;8.516;2023-07-02T01:31:03;11.45;;;3.08;;
42098;SDS011;27758;55.900;8.516;2023-07-02T01:33:30;12.27;;;3.42;;
42098;SDS011;27758;55.900;8.516;2023-07-02T01:35:56;14.02;;;3.55;;
42098;SDS011;27758;55.900;8.516;2023-07-02T01:38:22;15.10;;;3.63;;
42098;SDS011;27758;55.900;8.516;2023-07-02T01:40:47;14.63;;;2.83;;
42098;SDS011;27758;55.900;8.516;2023-07-02T01:43:13;13.05;;;3.28;;
42098;SDS011;27758;55.900;8.516;2023-07-02T01:45:40;11.95;;;3.42;;
42098;SDS011;27758;55.900;8.516;2023-07-02T01:48:07;12.80;;;3.00;;
42098;SDS011;27758;55.900;8.516;2023-07-02T01:50:32;12.23;;;3.80;;
42098;SDS011;27758;55.900;8.516;2023-07-02T01:52:58;19.65;;;3.88;;
42098;SDS011;27758;55.900;8.516;2023-07-02T01:55:24;12.02;;;3.78;;
42098;SDS011;27758;55.900;8.516;2023-07-02T01:57:50;13.93;;;3.40;;
42098;SDS011;27758;55.900;8.516;2023-07-02T02:00:16;14.15;;;3.22;;
42098;SDS011;27758;55.900;8.516;2023-07-02T02:02:42;16.98;;;4.15;;
42098;SDS011;27758;55.900;8.516;2023-07-02T02:05:08;19.42;;;3.63;;
42098;SDS011;27758;55.900;8.516;2023-07-02T02:07:35;19.38;;;3.92;;
42098;SDS011;27758;55.900;8.516;2023-07-02T02:10:05;15.20;;;3.45;;
42098;SDS011;27758;55.900;8.516;2023-07-02T02:12:32;9.75;;;3.03;;
42098;SDS011;27758;55.900;8.516;2023-07-02T02:14:58;13.18;;;2.70;;
42098;SDS011;27758;55.900;8.516;2023-07-02T02:17:23;11.75;;;3.03;;
42098;SDS011;27758;55.900;8.516;2023-07-02T02:19:49;10.77;;;2.88;;
42098;SDS011;27758;55.900;8.516;2023-07-02T02:22:15;8.82;;;3.38;;
42098;SDS011;27758;55.900;8.516;2023-07-02T02:24:41;14.75;;;3.78;;
42098;SDS011;27758;55.900;8.516;2023-07-02T02:27:07;15.63;;;3.50;;
42098;SDS011;27758;55.900;8.516;2023-07-02T02:29:33;18.17;;;4.63;;
42098;SDS011;27758;55.900;8.516;2023-07-02T02:32:00;16.08;;;4.55;;
42098;SDS011;27758;55.900;8.516;2023-07-02T02:34:25;19.13;;;4.38;;
42098;SDS011;27758;55.900;8.516;2023-07-02T02:36:51;18.23;;;4.75;;
42098;SDS011;27758;55.900;8.516;2023-07-02T02:39:17;18.45;;;4.57;;
42098;SDS011;27758;55.900;8.516;2023-07-02T02:41:42;17.25;;;5.28;;
42098;SDS011;27758;55.900;8.516;2023-07-02T02:44:08;16.70;;;5.18;;
42098;SDS011;27758;55.900;8.516;2023-07-02T02:46:34;27.73;;;6.75;;
42098;SDS011;27758;55.900;8.516;2023-07-02T02:48:59;19.38;;;5.88;;
42098;SDS011;27758;55.900;8.516;2023-07-02T02:51:25;20.23;;;5.70;;
42098;SDS011;27758;55.900;8.516;2023-07-02T02:53:51;19.10;;;5.80;;
42098;SDS011;27758;55.900;8.516;2023-07-02T02:56:16;23.83;;;5.93;;
42098;SDS011;27758;55.900;8.516;2023-07-02T02:58:43;24.77;;;6.20;;
42098;SDS011;27758;55.900;8.516;2023-07-02T03:01:09;17.83;;;5.85;;
42098;SDS011;27758;55.900;8.516;2023-07-02T03:03:36;22.83;;;6.53;;
42098;SDS011;27758;55.900;8.516;2023-07-02T03:06:10;21.70;;;6.05;;
42098;SDS011;27758;55.900;8.516;2023-07-02T03:08:38;22.27;;;6.25;;
42098;SDS011;27758;55.900;8.516;2023-07-02T03:11:04;22.08;;;6.03;;
42098;SDS011;27758;55.900;8.516;2023-07-02T03:13:30;20.75;;;6.70;;
42098;SDS011;27758;55.900;8.516;2023-07-02T03:15:55;19.55;;;7.22;;
42098;SDS011;27758;55.900;8.516;2023-07-02T03:18:21;24.30;;;6.65;;
42098;SDS011;27758;55.900;8.516;2023-07-02T03:20:47;18.85;;;6.82;;
42098;SDS011;27758;55.900;8.516;2023-07-02T03:23:12;25.75;;;7.45;;
42098;SDS011;27758;55.900;8.516;2023-07-02T03:25:38;25.58;;;7.38;;
42098;SDS011;27758;55.900;8.516;2023-07-02T03:28:04;32.15;;;7.95;;
42098;SDS011;27758;55.900;8.516;2023-07-02T03:30:29;18.50;;;7.20;;
42098;SDS011;27758;55.900;8.516;2023-07-02T03:32:55;27.48;;;7.78;;
42098;SDS011;27758;55.900;8.516;2023-07-02T03:35:21;29.95;;;7.97;;
42098;SDS011;27758;55.900;8.516;2023-07-02T03:37:46;21.25;;;6.85;;
42098;SDS011;27758;55.900;8.516;2023-07-02T03:40:12;18.52;;;6.90;;
42098;SDS011;27758;55.900;8.516;2023-07-02T03:42:38;21.48;;;7.85;;
42098;SDS011;27758;55.900;8.516;2023-07-02T03:45:03;26.90;;;8.10;;
42098;SDS011;27758;55.900;8.516;2023-07-02T03:47:29;30.50;;;7.95;;
42098;SDS011;27758;55.900;8.516;2023-07-02T03:49:55;24.05;;;8.15;;
42098;SDS011;27758;55.900;8.516;2023-07-02T03:52:21;24.25;;;9.30;;
42098;SDS011;27758;55.900;8.516;2023-07-02T03:54:46;23.70;;;7.13;;
42098;SDS011;27758;55.900;8.516;2023-07-02T03:57:12;29.92;;;8.43;;
42098;SDS011;27758;55.900;8.516;2023-07-02T03:59:38;25.00;;;7.82;;
42098;SDS011;27758;55.900;8.516;2023-07-02T04:02:03;28.20;;;8.80;;
42098;SDS011;27758;55.900;8.516;2023-07-02T04:04:29;19.02;;;6.70;;
42098;SDS011;27758;55.900;8.516;2023-07-02T04:06:55;22.90;;;8.18;;
42098;SDS011;27758;55.900;8.516;2023-07-02T04:09:22;26.45;;;7.30;;
42098;SDS011;27758;55.900;8.516;2023-07-02T04:11:47;18.20;;;6.30;;
42098;SDS011;27758;55.900;8.516;2023-07-02T04:14:13;21.95;;;7.65;;
42098;SDS011;27758;55.900;8.516;2023-07-02T04:16:39;24.63;;;7.80;;
42098;SDS011;27758;55.900;8.516;2023-07-02T04:19:04;26.30;;;6.90;;
42098;SDS011;27758;55.900;8.516;2023-07-02T04:21:30;23.70;;;8.07;;
42098;SDS011;27758;55.900;8.516;2023-07-02T04:23:56;23.95;;;7.78;;
42098;SDS011;27758;55.900;8.516;2023-07-02T04:26:21;19.35;;;6.70;;
42098;SDS011;27758;55.900;8.516;2023-07-02T04:28:47;21.80;;;6.80;;
42098;SDS011;27758;55.900;8.516;2023-07-02T04:31:13;24.95;;;6.93;;
42098;SDS011;27758;55.900;8.516;2023-07-02T04:33:39;23.67;;;7.45;;
42098;SDS011;27758;55.900;8.516;2023-07-02T04:36:05;21.40;;;7.72;;
42098;SDS011;27758;55.900;8.516;2023-07-02T04:38:30;23.00;;;6.75;;
42098;SDS011;27758;55.900;8.516;2023-07-02T04:40:56;19.52;;;6.43;;
42098;SDS011;27758;55.900;8.516;2023-07-02T04:43:30;16.17;;;5.10;;
42098;SDS011;27758;55.900;8.516;2023-07-02T04:45:58;15.97;;;4.63;;
42098;SDS011;27758;55.900;8.516;2023-07-02T04:48:24;20.05;;;5.30;;
42098;SDS011;27758;55.900;8.516;2023-07-02T04:50:50;19.88;;;5.38;;
42098;SDS011;27758;55.900;8.516;2023-07-02T04:53:16;20.20;;;5.75;;
42098;SDS011;27758;55.900;8.516;2023-07-02T04:55:42;14.95;;;4.30;;
42098;SDS011;27758;55.900;8.516;2023-07-02T04:58:08;17.42;;;4.85;;
42098;SDS011;27758;55.900;8.516;2023-07-02T05:00:34;15.38;;;4.20;;
42098;SDS011;27758;55.900;8.516;2023-07-02T05:03:02;19.17;;;5.25;;
42098;SDS011;27758;55.900;8.516;2023-07-02T05:05:28;12.70;;;4.28;;
42098;SDS011;27758;55.900;8.516;2023-07-02T05:07:55;16.60;;;4.53;;
42098;SDS011;27758;55.900;8.516;2023-07-02T05:10:21;13.68;;;4.20;;
42098;SDS011;27758;55.900;8.516;2023-07-02T05:12:46;21.48;;;5.18;;
42098;SDS011;27758;55.900;8.516;2023-07-02T05:15:12;14.45;;;4.97;;
42098;SDS011;27758;55.900;8.516;2023-07-02T05:17:38;14.93;;;4.60;;
42098;SDS011;27758;55.900;8.516;2023-07-02T05:20:04;12.02;;;4.20;;
42098;SDS011;27758;55.900;8.516;2023-07-02T05:22:30;17.35;;;5.03;;
42098;SDS011;27758;55.900;8.516;2023-07-02T05:24:56;16.33;;;4.22;;
42098;SDS011;27758;55.900;8.516;2023-07-02T05:27:22;18.38;;;4.88;;
42098;SDS011;27758;55.900;8.516;2023-07-02T05:29:47;13.90;;;5.00;;
42098;SDS011;27758;55.900;8.516;2023-07-02T05:32:13;15.10;;;4.43;;
42098;SDS011;27758;55.900;8.516;2023-07-02T05:34:39;13.23;;;5.32;;
42098;SDS011;27758;55.900;8.516;2023-07-02T05:37:05;15.25;;;5.25;;
42098;SDS011;27758;55.900;8.516;2023-07-02T05:39:31;14.43;;;4.60;;
42098;SDS011;27758;55.900;8.516;2023-07-02T05:41:58;12.50;;;5.03;;
42098;SDS011;27758;55.900;8.516;2023-07-02T05:44:24;14.05;;;4.25;;
42098;SDS011;27758;55.900;8.516;2023-07-02T05:46:50;20.33;;;5.05;;
42098;SDS011;27758;55.900;8.516;2023-07-02T05:49:15;14.70;;;4.50;;
42098;SDS011;27758;55.900;8.516;2023-07-02T05:51:41;17.15;;;4.63;;
42098;SDS011;27758;55.900;8.516;2023-07-02T05:54:07;17.38;;;4.32;;
42098;SDS011;27758;55.900;8.516;2023-07-02T05:56:32;14.15;;;4.07;;
42098;SDS011;27758;55.900;8.516;2023-07-02T05:58:58;8.43;;;3.55;;
42098;SDS011;27758;55.900;8.516;2023-07-02T06:01:24;14.38;;;3.83;;
42098;SDS011;27758;55.900;8.516;2023-07-02T06:03:50;11.70;;;4.70;;
42098;SDS011;27758;55.900;8.516;2023-07-02T06:06:15;12.25;;;3.28;;
42098;SDS011;27758;55.900;8.516;2023-07-02T06:08:41;10.13;;;3.72;;
42098;SDS011;27758;55.900;8.516;2023-07-02T06:11:07;10.40;;;3.75;;
42098;SDS011;27758;55.900;8.516;2023-07-02T06:13:34;13.98;;;4.55;;
42098;SDS011;27758;55.900;8.516;2023-07-02T06:15:59;13.48;;;4.03;;
42098;SDS011;27758;55.900;8.516;2023-07-02T06:18:25;13.38;;;3.70;;
42098;SDS011;27758;55.900;8.516;2023-07-02T06:20:51;12.63;;;3.78;;
42098;SDS011;27758;55.900;8.516;2023-07-02T06:23:19;19.30;;;5.72;;
42098;SDS011;27758;55.900;8.516;2023-07-02T06:25:44;17.48;;;6.10;;
42098;SDS011;27758;55.900;8.516;2023-07-02T06:28:10;15.48;;;4.32;;
42098;SDS011;27758;55.900;8.516;2023-07-02T06:30:36;15.90;;;4.72;;
42098;SDS011;27758;55.900;8.516;2023-07-02T06:33:01;13.90;;;4.90;;
42098;SDS011;27758;55.900;8.516;2023-07-02T06:35:27;23.40;;;5.60;;
42098;SDS011;27758;55.900;8.516;2023-07-02T06:37:53;19.02;;;5.95;;
42098;SDS011;27758;55.900;8.516;2023-07-02T06:40:19;15.07;;;4.72;;
42098;SDS011;27758;55.900;8.516;2023-07-02T06:42:47;16.45;;;4.47;;
42098;SDS011;27758;55.900;8.516;2023-07-02T06:45:13;15.32;;;3.88;;
42098;SDS011;27758;55.900;8.516;2023-07-02T06:47:38;10.95;;;3.15;;
42098;SDS011;27758;55.900;8.516;2023-07-02T06:50:04;19.02;;;4.43;;
42098;SDS011;27758;55.900;8.516;2023-07-02T06:52:30;16.30;;;3.88;;
42098;SDS011;27758;55.900;8.516;2023-07-02T06:54:56;14.40;;;4.45;;
42098;SDS011;27758;55.900;8.516;2023-07-02T06:57:21;18.65;;;4.93;;
42098;SDS011;27758;55.900;8.516;2023-07-02T06:59:48;12.60;;;4.00;;
42098;SDS011;27758;55.900;8.516;2023-07-02T07:02:15;16.85;;;4.35;;
42098;SDS011;27758;55.900;8.516;2023-07-02T07:04:40;15.00;;;4.15;;
42098;SDS011;27758;55.900;8.516;2023-07-02T07:07:06;18.70;;;3.85;;
42098;SDS011;27758;55.900;8.516;2023-07-02T07:09:32;14.93;;;4.18;;
42098;SDS011;27758;55.900;8.516;2023-07-02T07:11:57;17.90;;;3.90;;
42098;SDS011;27758;55.900;8.516;2023-07-02T07:14:23;17.38;;;4.10;;
42098;SDS011;27758;55.900;8.516;2023-07-02T07:16:49;14.32;;;4.03;;
42098;SDS011;27758;55.900;8.516;2023-07-02T07:19:16;19.10;;;5.25;;
42098;SDS011;27758;55.900;8.516;2023-07-02T07:21:41;20.13;;;4.13;;
42098;SDS011;27758;55.900;8.516;2023-07-02T07:24:08;19.92;;;3.95;;
42098;SDS011;27758;55.900;8.516;2023-07-02T07:26:34;11.15;;;3.95;;
42098;SDS011;27758;55.900;8.516;2023-07-02T07:29:00;11.52;;;3.47;;
42098;SDS011;27758;55.900;8.516;2023-07-02T07:31:25;9.77;;;3.70;;
42098;SDS011;27758;55.900;8.516;2023-07-02T07:33:51;13.93;;;3.85;;
42098;SDS011;27758;55.900;8.516;2023-07-02T07:36:17;8.90;;;3.13;;
42098;SDS011;27758;55.900;8.516;2023-07-02T07:38:43;12.65;;;3.60;;
42098;SDS011;27758;55.900;8.516;2023-07-02T07:41:09;19.83;;;4.57;;
42098;SDS011;27758;55.900;8.516;2023-07-02T07:43:34;13.48;;;5.00;;
42098;SDS011;27758;55.900;8.516;2023-07-02T07:46:00;22.50;;;4.45;;
42098;SDS011;27758;55.900;8.516;2023-07-02T07:48:26;21.05;;;4.85;;
42098;SDS011;27758;55.900;8.516;2023-07-02T07:50:52;13.00;;;3.13;;
42098;SDS011;27758;55.900;8.516;2023-07-02T07:53:17;12.48;;;4.15;;
42098;SDS011;27758;55.900;8.516;2023-07-02T07:55:43;13.07;;;3.50;;
42098;SDS011;27758;55.900;8.516;2023-07-02T07:58:09;14.52;;;3.33;;
42098;SDS011;27758;55.900;8.516;2023-07-02T08:00:34;12.65;;;3.35;;
42098;SDS011;27758;55.900;8.516;2023-07-02T08:03:01;11.50;;;3.03;;
42098;SDS011;27758;55.900;8.516;2023-07-02T08:05:28;13.35;;;3.28;;
42098;SDS011;27758;55.900;8.516;2023-07-02T08:07:54;12.43;;;2.97;;
42098;SDS011;27758;55.900;8.516;2023-07-02T08:10:20;11.13;;;2.78;;
42098;SDS011;27758;55.900;8.516;2023-07-02T08:12:46;11.85;;;3.60;;
42098;SDS011;27758;55.900;8.516;2023-07-02T08:15:12;13.55;;;3.72;;
42098;SDS011;27758;55.900;8.516;2023-07-02T08:17:38;8.95;;;2.58;;
42098;SDS011;27758;55.900;8.516;2023-07-02T08:20:04;11.52;;;3.05;;
42098;SDS011;27758;55.900;8.516;2023-07-02T08:22:34;14.85;;;3.10;;
42098;SDS011;27758;55.900;8.516;2023-07-02T08:25:01;13.45;;;3.72;;
42098;SDS011;27758;55.900;8.516;2023-07-02T08:27:27;17.95;;;3.75;;
42098;SDS011;27758;55.900;8.516;2023-07-02T08:29:52;19.05;;;4.75;;
42098;SDS011;27758;55.900;8.516;2023-07-02T08:32:18;18.38;;;4.05;;
42098;SDS011;27758;55.900;8.516;2023-07-02T08:34:44;11.82;;;3.63;;
42098;SDS011;27758;55.900;8.516;2023-07-02T08:37:09;13.95;;;4.25;;
42098;SDS011;27758;55.900;8.516;2023-07-02T08:39:35;12.93;;;3.55;;
42098;SDS011;27758;55.900;8.516;2023-07-02T08:42:02;13.77;;;3.45;;
42098;SDS011;27758;55.900;8.516;2023-07-02T08:44:28;15.25;;;4.32;;
42098;SDS011;27758;55.900;8.516;2023-07-02T08:46:54;11.38;;;3.40;;
42098;SDS011;27758;55.900;8.516;2023-07-02T08:49:21;11.45;;;2.90;;
42098;SDS011;27758;55.900;8.516;2023-07-02T08:51:47;13.50;;;3.40;;
42098;SDS011;27758;55.900;8.516;2023-07-02T08:54:17;9.68;;;3.33;;
42098;SDS011;27758;55.900;8.516;2023-07-02T08:56:43;11.05;;;2.67;;
42098;SDS011;27758;55.900;8.516;2023-07-02T08:59:09;13.77;;;3.47;;
42098;SDS011;27758;55.900;8.516;2023-07-02T09:01:51;12.07;;;3.72;;
42098;SDS011;27758;55.900;8.516;2023-07-02T09:04:22;11.77;;;3.50;;
42098;SDS011;27758;55.900;8.516;2023-07-02T09:07:02;11.40;;;3.25;;
42098;SDS011;27758;55.900;8.516;2023-07-02T09:09:29;10.90;;;3.67;;
42098;SDS011;27758;55.900;8.516;2023-07-02T09:11:55;16.13;;;3.55;;
42098;SDS011;27758;55.900;8.516;2023-07-02T09:14:24;18.65;;;3.80;;
42098;SDS011;27758;55.900;8.516;2023-07-02T09:17:07;12.02;;;3.80;;
42098;SDS011;27758;55.900;8.516;2023-07-02T09:19:34;16.70;;;3.08;;
42098;SDS011;27758;55.900;8.516;2023-07-02T09:22:01;12.55;;;3.13;;
42098;SDS011;27758;55.900;8.516;2023-07-02T09:24:29;11.10;;;3.65;;
42098;SDS011;27758;55.900;8.516;2023-07-02T09:26:56;18.55;;;3.85;;
42098;SDS011;27758;55.900;8.516;2023-07-02T09:31:59;21.02;;;3.67;;
42098;SDS011;27758;55.900;8.516;2023-07-02T09:34:31;13.77;;;3.83;;
42098;SDS011;27758;55.900;8.516;2023-07-02T09:36:58;19.40;;;4.57;;
42098;SDS011;27758;55.900;8.516;2023-07-02T09:39:26;14.25;;;3.80;;
42098;SDS011;27758;55.900;8.516;2023-07-02T09:41:54;12.52;;;3.92;;
42098;SDS011;27758;55.900;8.516;2023-07-02T09:44:22;11.85;;;3.33;;
42098;SDS011;27758;55.900;8.516;2023-07-02T09:47:04;12.00;;;3.60;;
42098;SDS011;27758;55.900;8.516;2023-07-02T09:49:35;16.13;;;3.58;;
42098;SDS011;27758;55.900;8.516;2023-07-02T09:52:06;17.05;;;4.05;;
42098;SDS011;27758;55.900;8.516;2023-07-02T09:54:34;10.23;;;3.58;;
42098;SDS011;27758;55.900;8.516;2023-07-02T09:57:00;15.90;;;4.18;;
42098;SDS011;27758;55.900;8.516;2023-07-02T09:59:26;14.75;;;4.03;;
42098;SDS011;27758;55.900;8.516;2023-07-02T10:01:53;12.55;;;3.75;;
42098;SDS011;27758;55.900;8.516;2023-07-02T10:04:19;16.23;;;4.35;;
42098;SDS011;27758;55.900;8.516;2023-07-02T10:06:50;18.90;;;4.22;;
42098;SDS011;27758;55.900;8.516;2023-07-02T10:09:18;22.25;;;4.80;;
42098;SDS011;27758;55.900;8.516;2023-07-02T10:11:45;19.00;;;4.47;;
42098;SDS011;27758;55.900;8.516;2023-07-02T10:14:11;19.23;;;4.15;;
42098;SDS011;27758;55.900;8.516;2023-07-02T10:16:50;10.70;;;2.92;;
42098;SDS011;27758;55.900;8.516;2023-07-02T10:19:16;10.98;;;3.35;;
42098;SDS011;27758;55.900;8.516;2023-07-02T10:21:42;9.88;;;3.45;;
42098;SDS011;27758;55.900;8.516;2023-07-02T10:24:14;10.27;;;2.80;;
42098;SDS011;27758;55.900;8.516;2023-07-02T10:29:23;12.10;;;3.42;;
42098;SDS011;27758;55.900;8.516;2023-07-02T10:31:50;18.38;;;4.35;;
42098;SDS011;27758;55.900;8.516;2023-07-02T10:34:27;20.67;;;4.00;;
42098;SDS011;27758;55.900;8.516;2023-07-02T10:36:57;17.30;;;4.30;;
42098;SDS011;27758;55.900;8.516;2023-07-02T10:39:23;9.20;;;1.90;;
42098;SDS011;27758;55.900;8.516;2023-07-02T10:41:49;8.60;;;2.47;;
42098;SDS011;27758;55.900;8.516;2023-07-02T10:44:15;9.57;;;2.78;;
42098;SDS011;27758;55.900;8.516;2023-07-02T10:46:44;21.60;;;3.65;;
42098;SDS011;27758;55.900;8.516;2023-07-02T10:49:11;10.18;;;2.80;;
42098;SDS011;27758;55.900;8.516;2023-07-02T10:51:37;12.77;;;3.63;;
42098;SDS011;27758;55.900;8.516;2023-07-02T10:54:03;8.20;;;2.70;;
42098;SDS011;27758;55.900;8.516;2023-07-02T10:56:32;8.05;;;3.22;;
42098;SDS011;27758;55.900;8.516;2023-07-02T10:58:58;11.65;;;3.75;;
42098;SDS011;27758;55.900;8.516;2023-07-02T11:01:24;10.45;;;2.83;;
42098;SDS011;27758;55.900;8.516;2023-07-02T11:04:01;14.55;;;3.40;;
42098;SDS011;27758;55.900;8.516;2023-07-02T11:06:29;15.23;;;3.58;;
42098;SDS011;27758;55.900;8.516;2023-07-02T11:09:01;24.30;;;4.75;;
42098;SDS011;27758;55.900;8.516;2023-07-02T11:11:28;22.08;;;4.75;;
42098;SDS011;27758;55.900;8.516;2023-07-02T11:13:54;19.90;;;5.32;;
42098;SDS011;27758;55.900;8.516;2023-07-02T11:16:26;21.58;;;5.50;;
42098;SDS011;27758;55.900;8.516;2023-07-02T11:19:09;15.85;;;3.65;;
42098;SDS011;27758;55.900;8.516;2023-07-02T11:21:38;12.70;;;3.60;;
42098;SDS011;27758;55.900;8.516;2023-07-02T11:24:14;23.95;;;4.30;;
42098;SDS011;27758;55.900;8.516;2023-07-02T11:26:40;16.08;;;3.55;;
42098;SDS011;27758;55.900;8.516;2023-07-02T11:29:12;15.88;;;3.95;;
42098;SDS011;27758;55.900;8.516;2023-07-02T11:31:43;12.40;;;3.40;;
42098;SDS011;27758;55.900;8.516;2023-07-02T11:34:15;13.48;;;3.67;;
42098;SDS011;27758;55.900;8.516;2023-07-02T11:36:42;10.35;;;3.15;;
42098;SDS011;27758;55.900;8.516;2023-07-02T11:39:08;9.07;;;2.50;;
42098;SDS011;27758;55.900;8.516;2023-07-02T11:41:38;6.93;;;2.20;;
42098;SDS011;27758;55.900;8.516;2023-07-02T11:44:05;10.70;;;3.13;;
42098;SDS011;27758;55.900;8.516;2023-07-02T11:46:31;12.88;;;3.22;;
42098;SDS011;27758;55.900;8.516;2023-07-02T11:48:57;20.27;;;3.60;;
42098;SDS011;27758;55.900;8.516;2023-07-02T11:51:23;9.85;;;3.13;;
42098;SDS011;27758;55.900;8.516;2023-07-02T11:53:48;12.98;;;3.00;;
42098;SDS011;27758;55.900;8.516;2023-07-02T11:56:14;15.20;;;3.53;;
42098;SDS011;27758;55.900;8.516;2023-07-02T11:58:40;12.60;;;3.15;;
42098;SDS011;27758;55.900;8.516;2023-07-02T12:01:07;11.50;;;3.05;;
42098;SDS011;27758;55.900;8.516;2023-07-02T12:03:34;14.45;;;2.90;;
42098;SDS011;27758;55.900;8.516;2023-07-02T12:06:00;13.80;;;2.80;;
42098;SDS011;27758;55.900;8.516;2023-07-02T12:08:26;16.13;;;3.15;;
42098;SDS011;27758;55.900;8.516;2023-07-02T12:10:52;11.23;;;3.00;;
42098;SDS011;27758;55.900;8.516;2023-07-02T12:13:18;15.75;;;3.08;;
42098;SDS011;27758;55.900;8.516;2023-07-02T12:15:46;15.13;;;3.85;;
42098;SDS011;27758;55.900;8.516;2023-07-02T12:18:13;18.00;;;3.28;;
42098;SDS011;27758;55.900;8.516;2023-07-02T12:20:39;18.42;;;3.47;;
42098;SDS011;27758;55.900;8.516;2023-07-02T12:23:05;12.60;;;3.22;;
42098;SDS011;27758;55.900;8.516;2023-07-02T12:25:31;9.85;;;2.65;;
42098;SDS011;27758;55.900;8.516;2023-07-02T12:27:57;14.60;;;3.05;;
42098;SDS011;27758;55.900;8.516;2023-07-02T12:30:22;16.25;;;3.33;;
42098;SDS011;27758;55.900;8.516;2023-07-02T12:32:48;17.20;;;3.42;;
42098;SDS011;27758;55.900;8.516;2023-07-02T12:35:14;14.82;;;3.85;;
42098;SDS011;27758;55.900;8.516;2023-07-02T12:37:45;13.95;;;3.38;;
42098;SDS011;27758;55.900;8.516;2023-07-02T12:40:12;12.73;;;2.92;;
42098;SDS011;27758;55.900;8.516;2023-07-02T12:42:38;14.93;;;3.60;;
42098;SDS011;27758;55.900;8.516;2023-07-02T12:45:05;18.25;;;3.70;;
42098;SDS011;27758;55.900;8.516;2023-07-02T12:47:31;16.80;;;3.60;;
42098;SDS011;27758;55.900;8.516;2023-07-02T12:49:57;12.43;;;3.55;;
42098;SDS011;27758;55.900;8.516;2023-07-02T12:52:24;12.45;;;3.40;;
42098;SDS011;27758;55.900;8.516;2023-07-02T12:54:50;17.70;;;3.58;;
42098;SDS011;27758;55.900;8.516;2023-07-02T12:57:16;17.77;;;4.05;;
42098;SDS011;27758;55.900;8.516;2023-07-02T12:59:43;10.57;;;2.78;;
42098;SDS011;27758;55.900;8.516;2023-07-02T13:02:09;15.25;;;2.97;;
42098;SDS011;27758;55.900;8.516;2023-07-02T13:04:35;15.20;;;3.47;;
42098;SDS011;27758;55.900;8.516;2023-07-02T13:07:01;14.60;;;3.30;;
42098;SDS011;27758;55.900;8.516;2023-07-02T13:09:27;13.75;;;3.20;;
42098;SDS011;27758;55.900;8.516;2023-07-02T13:11:53;14.13;;;3.15;;
42098;SDS011;27758;55.900;8.516;2023-07-02T13:14:19;12.10;;;3.22;;
42098;SDS011;27758;55.900;8.516;2023-07-02T13:16:45;13.25;;;2.85;;
42098;SDS011;27758;55.900;8.516;2023-07-02T13:19:10;15.40;;;3.33;;
42098;SDS011;27758;55.900;8.516;2023-07-02T13:21:36;23.73;;;4.00;;
42098;SDS011;27758;55.900;8.516;2023-07-02T13:24:02;17.92;;;3.25;;
42098;SDS011;27758;55.900;8.516;2023-07-02T13:26:28;13.23;;;3.40;;
42098;SDS011;27758;55.900;8.516;2023-07-02T13:28:54;9.43;;;2.25;;
42098;SDS011;27758;55.900;8.516;2023-07-02T13:31:19;13.15;;;2.95;;
42098;SDS011;27758;55.900;8.516;2023-07-02T13:33:45;11.13;;;3.10;;
42098;SDS011;27758;55.900;8.516;2023-07-02T13:36:11;13.43;;;3.22;;
42098;SDS011;27758;55.900;8.516;2023-07-02T13:38:37;13.07;;;3.40;;
42098;SDS011;27758;55.900;8.516;2023-07-02T13:41:03;18.00;;;3.72;;
42098;SDS011;27758;55.900;8.516;2023-07-02T13:43:28;18.70;;;4.07;;
42098;SDS011;27758;55.900;8.516;2023-07-02T13:45:54;16.73;;;3.60;;
42098;SDS011;27758;55.900;8.516;2023-07-02T13:48:20;18.95;;;4.30;;
42098;SDS011;27758;55.900;8.516;2023-07-02T13:50:46;13.82;;;2.97;;
42098;SDS011;27758;55.900;8.516;2023-07-02T13:53:11;19.38;;;3.72;;
42098;SDS011;27758;55.900;8.516;2023-07-02T13:55:37;12.82;;;2.65;;
42098;SDS011;27758;55.900;8.516;2023-07-02T13:58:03;15.82;;;3.10;;
42098;SDS011;27758;55.900;8.516;2023-07-02T14:00:28;16.20;;;3.78;;
42098;SDS011;27758;55.900;8.516;2023-07-02T14:02:55;12.52;;;3.00;;
42098;SDS011;27758;55.900;8.516;2023-07-02T14:05:21;16.95;;;3.63;;
42098;SDS011;27758;55.900;8.516;2023-07-02T14:07:47;17.83;;;3.58;;
42098;SDS011;27758;55.900;8.516;2023-07-02T14:10:13;18.80;;;3.40;;
42098;SDS011;27758;55.900;8.516;2023-07-02T14:12:40;21.52;;;3.95;;
42098;SDS011;27758;55.900;8.516;2023-07-02T14:15:06;14.25;;;3.35;;
42098;SDS011;27758;55.900;8.516;2023-07-02T14:17:33;17.17;;;4.20;;
42098;SDS011;27758;55.900;8.516;2023-07-02T14:19:59;17.75;;;2.95;;
42098;SDS011;27758;55.900;8.516;2023-07-02T14:22:25;13.02;;;3.08;;
42098;SDS011;27758;55.900;8.516;2023-07-02T14:24:50;17.02;;;3.72;;
42098;SDS011;27758;55.900;8.516;2023-07-02T14:27:16;14.45;;;3.63;;
42098;SDS011;27758;55.900;8.516;2023-07-02T14:29:42;17.55;;;4.13;;
42098;SDS011;27758;55.900;8.516;2023-07-02T14:32:08;17.55;;;3.00;;
42098;SDS011;27758;55.900;8.516;2023-07-02T14:34:34;17.27;;;2.70;;
42098;SDS011;27758;55.900;8.516;2023-07-02T14:37:01;10.38;;;2.83;;
42098;SDS011;27758;55.900;8.516;2023-07-02T14:39:28;13.75;;;4.13;;
42098;SDS011;27758;55.900;8.516;2023-07-02T14:41:54;15.02;;;4.50;;